Time;durP1;ratioP1;P1;durP2;ratioP2;P2;SDS_P1;SDS_P2;PMS_P1;PMS_P2;Temp;Humidity;BMP_temperature;BMP_pressure;BME280_temperature;BME280_humidity;BME280_pressure;Samples;Min_cycle;Max_cycle;Signal;HPM_P1;HPM_P2
2023/11/10 00:00:25;;;;;;;15.87;11.07;;;;;;;1.65;100.00;97069.81;6218392;28;20209;-51
2023/11/10 00:03:27;;;;;;;17.37;12.37;;;;;;;1.68;100.00;97058.91;6218432;28;20202;-50
2023/11/10 00:06:31;;;;;;;19.17;13.67;;;;;;;1.72;100.00;97065.34;6217814;28;20210;-49
2023/11/10 00:09:34;;;;;;;21.43;14.63;;;;;;;1.79;100.00;97067.00;6215917;28;20901;-49
2023/11/10 00:12:36;;;;;;;17.37;11.90;;;;;;;1.85;100.00;97068.00;6217674;28;20754;-49
2023/11/10 00:15:39;;;;;;;15.20;11.53;;;;;;;1.90;100.00;97073.47;6219438;28;20738;-49
2023/11/10 00:18:42;;;;;;;17.37;11.27;;;;;;;1.91;100.00;97072.44;6219141;28;20251;-51
2023/11/10 00:21:50;;;;;;;14.43;9.67;;;;;;;1.93;100.00;97064.38;6217941;28;20330;-52
2023/11/10 00:24:53;;;;;;;15.40;11.03;;;;;;;1.97;100.00;97070.81;6218093;28;20290;-51
2023/11/10 00:27:55;;;;;;;14.40;10.37;;;;;;;1.87;100.00;97042.34;6215931;28;20309;-52
2023/11/10 00:30:57;;;;;;;14.57;10.50;;;;;;;2.03;100.00;97065.59;6223561;28;20691;-53
2023/11/10 00:33:59;;;;;;;16.97;11.87;;;;;;;2.08;100.00;97069.44;6217786;28;20209;-51
2023/11/10 00:37:02;;;;;;;16.93;12.87;;;;;;;2.10;100.00;97070.03;6218216;28;20570;-52
2023/11/10 00:40:05;;;;;;;15.93;12.33;;;;;;;2.09;100.00;97057.91;6218191;28;20212;-52
2023/11/10 00:43:07;;;;;;;16.77;11.37;;;;;;;2.10;100.00;97057.69;6217864;28;20234;-52
2023/11/10 00:46:10;;;;;;;17.10;12.00;;;;;;;1.88;100.00;97024.78;6220446;28;20215;-52
2023/11/10 00:49:15;;;;;;;17.13;11.57;;;;;;;1.90;100.00;97015.69;6218283;28;20199;-51
2023/11/10 00:52:18;;;;;;;16.93;12.00;;;;;;;2.16;100.00;97043.75;6216406;28;20716;-55
2023/11/10 00:55:21;;;;;;;15.40;11.37;;;;;;;2.16;100.00;97049.00;6217531;28;20616;-52
2023/11/10 00:58:23;;;;;;;16.67;11.93;;;;;;;2.07;100.00;97026.59;6218782;28;20307;-52
2023/11/10 01:01:27;;;;;;;17.60;11.43;;;;;;;2.09;100.00;97024.56;6220738;28;20567;-52
2023/11/10 01:04:29;;;;;;;16.93;11.63;;;;;;;2.19;100.00;97034.66;6217553;28;20668;-49
2023/11/10 01:07:31;;;;;;;15.33;11.13;;;;;;;1.95;100.00;96991.44;6217025;28;20212;-52
2023/11/10 01:10:33;;;;;;;14.53;11.23;;;;;;;2.23;100.00;97033.25;6217999;28;20195;-51
2023/11/10 01:13:36;;;;;;;13.87;10.53;;;;;;;2.24;100.00;97030.41;6215763;28;20258;-52
2023/11/10 01:16:38;;;;;;;14.80;9.73;;;;;;;2.27;100.00;97029.19;6217214;28;20194;-52
2023/11/10 01:19:40;;;;;;;15.17;10.27;;;;;;;2.27;100.00;97032.63;6218890;28;20294;-52
2023/11/10 01:22:42;;;;;;;12.77;9.93;;;;;;;2.29;100.00;97029.78;6220983;28;20723;-52
2023/11/10 01:25:46;;;;;;;13.60;9.63;;;;;;;2.31;100.00;97023.28;6222332;28;20212;-53
2023/11/10 01:28:49;;;;;;;12.67;9.93;;;;;;;2.34;100.00;97016.84;6216845;28;20207;-52
2023/11/10 01:31:51;;;;;;;10.87;8.53;;;;;;;2.37;100.00;97013.00;6221901;28;20599;-53
2023/11/10 01:34:54;;;;;;;17.73;11.13;;;;;;;2.38;100.00;97025.94;6236333;28;20308;-52
2023/11/10 01:37:56;;;;;;;13.07;9.90;;;;;;;2.41;100.00;97027.31;6222839;28;20187;-51
2023/11/10 01:40:58;;;;;;;13.13;9.70;;;;;;;2.43;100.00;97018.22;6221373;28;20214;-52
2023/11/10 01:44:01;;;;;;;11.27;9.00;;;;;;;2.45;100.00;97020.66;6219677;28;20208;-52
2023/11/10 01:47:05;;;;;;;10.40;8.13;;;;;;;2.47;100.00;97010.75;6221690;28;20214;-53
2023/11/10 01:50:10;;;;;;;14.63;11.13;;;;;;;2.49;100.00;97008.72;6221327;28;20196;-53
2023/11/10 01:53:13;;;;;;;11.50;8.83;;;;;;;2.49;100.00;97004.25;6220839;28;20200;-52
2023/11/10 01:56:15;;;;;;;13.80;10.50;;;;;;;2.44;100.00;96993.56;6220785;28;20195;-52
2023/11/10 01:59:19;;;;;;;13.80;10.37;;;;;;;2.47;100.00;96995.78;6219928;28;20739;-52
2023/11/10 02:02:22;;;;;;;14.23;10.83;;;;;;;2.57;100.00;97009.28;6218797;28;20367;-52
2023/11/10 02:05:24;;;;;;;12.63;9.13;;;;;;;2.58;100.00;97007.47;6221213;28;20657;-53
2023/11/10 02:08:26;;;;;;;14.33;10.97;;;;;;;2.62;100.00;97002.63;6220651;28;20699;-53
2023/11/10 02:11:32;;;;;;;14.47;10.40;;;;;;;2.54;100.00;96991.28;6220046;28;20234;-53
2023/11/10 02:14:35;;;;;;;16.77;11.60;;;;;;;2.63;100.00;97002.41;6220903;28;20189;-52
2023/11/10 02:17:37;;;;;;;13.87;10.67;;;;;;;2.65;100.00;96997.72;6220893;28;20184;-51
2023/11/10 02:20:40;;;;;;;12.67;9.83;;;;;;;2.66;100.00;96995.91;6218718;28;20215;-51
2023/11/10 02:23:44;;;;;;;18.87;11.27;;;;;;;2.67;100.00;96995.72;6221187;28;20193;-50
2023/11/10 02:26:46;;;;;;;17.87;12.63;;;;;;;2.68;100.00;96993.88;6217158;28;20229;-51
2023/11/10 02:29:49;;;;;;;17.30;11.63;;;;;;;2.71;100.00;96989.03;6222264;28;20315;-49
2023/11/10 02:32:51;;;;;;;16.60;12.13;;;;;;;2.75;100.00;96986.75;6219759;28;20656;-51
2023/11/10 02:35:53;;;;;;;16.93;12.67;;;;;;;2.77;100.00;96977.66;6218674;28;20204;-52
2023/11/10 02:38:55;;;;;;;17.53;11.63;;;;;;;2.67;100.00;96964.16;6220194;28;20200;-51
2023/11/10 02:41:57;;;;;;;21.60;13.53;;;;;;;2.85;100.00;96971.34;6219945;28;20199;-52
2023/11/10 02:44:59;;;;;;;16.77;12.10;;;;;;;2.88;100.00;96972.75;6220355;28;20258;-53
2023/11/10 02:48:02;;;;;;;16.33;11.57;;;;;;;2.91;100.00;96967.88;6218408;28;20701;-52
2023/11/10 02:51:04;;;;;;;14.47;11.00;;;;;;;2.94;100.00;96959.56;6219557;28;20602;-52
2023/11/10 02:54:06;;;;;;;13.03;10.40;;;;;;;2.97;100.00;96966.25;6220041;28;20624;-51
2023/11/10 02:57:09;;;;;;;11.40;9.23;;;;;;;2.98;100.00;96960.75;6232992;28;20208;-50
2023/11/10 03:00:11;;;;;;;12.70;9.27;;;;;;;2.91;100.00;96938.94;6218412;28;20559;-52
2023/11/10 03:03:14;;;;;;;13.63;10.10;;;;;;;3.04;100.00;96959.09;6221708;28;20196;-52
2023/11/10 03:06:17;;;;;;;15.43;10.07;;;;;;;3.07;100.00;96961.31;6218185;28;20371;-49
2023/11/10 03:09:22;;;;;;;14.57;10.53;;;;;;;3.13;100.00;96954.41;6218095;28;20267;-52
2023/11/10 03:12:25;;;;;;;10.90;8.77;;;;;;;3.02;100.00;96942.72;6218434;28;20283;-52
2023/11/10 03:15:27;;;;;;;15.20;10.27;;;;;;;3.13;100.00;96946.50;6219771;28;20558;-50
2023/11/10 03:18:30;;;;;;;12.83;9.50;;;;;;;3.20;100.00;96955.97;6217813;28;20664;-50
2023/11/10 03:21:32;;;;;;;12.03;9.60;;;;;;;3.23;100.00;96946.84;6212337;28;20201;-51
2023/11/10 03:24:34;;;;;;;12.10;9.50;;;;;;;3.27;100.00;96948.84;6218241;28;20567;-53
2023/11/10 03:27:36;;;;;;;13.17;9.20;;;;;;;3.28;100.00;96941.75;6217441;28;20581;-52
2023/11/10 03:30:38;;;;;;;10.50;8.43;;;;;;;3.31;100.00;96938.69;6218880;28;20286;-52
2023/11/10 03:33:42;;;;;;;13.13;9.40;;;;;;;3.35;100.00;96932.00;6218859;28;20275;-50
2023/11/10 03:36:45;;;;;;;12.93;9.33;;;;;;;3.38;100.00;96921.00;6217867;28;20204;-53
2023/11/10 03:39:47;;;;;;;10.53;8.30;;;;;;;3.41;100.00;96928.50;6218568;28;20270;-54
2023/11/10 03:42:49;;;;;;;10.37;7.70;;;;;;;3.44;100.00;96929.88;6217434;28;20676;-52
2023/11/10 03:45:53;;;;;;;9.87;7.40;;;;;;;3.47;100.00;96929.44;6218937;28;20602;-51
2023/11/10 03:48:55;;;;;;;9.57;7.47;;;;;;;3.50;100.00;96923.78;6218791;28;20211;-52
2023/11/10 03:51:57;;;;;;;9.07;6.80;;;;;;;3.54;100.00;96930.19;6216903;28;20196;-50
2023/11/10 03:54:59;;;;;;;8.67;7.00;;;;;;;3.54;100.00;96912.56;6217801;28;20247;-49
2023/11/10 03:58:02;;;;;;;8.70;6.43;;;;;;;3.61;100.00;96915.16;6217210;28;20193;-51
2023/11/10 04:01:10;;;;;;;11.13;6.50;;;;;;;3.63;100.00;96915.72;6218905;28;20668;-49
2023/11/10 04:04:14;;;;;;;8.07;5.80;;;;;;;3.68;100.00;96912.47;6217541;28;21087;-52
2023/11/10 04:07:16;;;;;;;5.97;5.17;;;;;;;3.69;100.00;96904.31;6218386;28;20672;-51
2023/11/10 04:10:21;;;;;;;8.00;5.77;;;;;;;3.72;100.00;96895.19;6215829;28;20257;-51
2023/11/10 04:13:23;;;;;;;5.83;4.97;;;;;;;3.78;100.00;96895.13;6218339;28;20200;-51
2023/11/10 04:16:25;;;;;;;6.10;5.13;;;;;;;3.81;100.00;96878.09;6217026;28;20457;-51
2023/11/10 04:19:28;;;;;;;8.30;4.97;;;;;;;3.84;100.00;96867.94;6218741;28;20193;-53
2023/11/10 04:22:30;;;;;;;6.10;4.73;;;;;;;3.88;100.00;96858.53;6213981;28;20206;-53
2023/11/10 04:25:33;;;;;;;4.57;4.07;;;;;;;3.88;100.00;96868.28;6218018;28;20973;-53
2023/11/10 04:28:38;;;;;;;6.70;4.23;;;;;;;3.89;100.00;96864.63;6216326;28;20219;-53
2023/11/10 04:31:40;;;;;;;4.30;3.90;;;;;;;3.90;100.00;96863.63;6217912;28;20317;-54
2023/11/10 04:34:42;;;;;;;4.83;4.03;;;;;;;3.93;100.00;96860.53;6218475;28;20204;-52
2023/11/10 04:37:45;;;;;;;4.23;3.83;;;;;;;3.93;100.00;96846.53;6218941;28;20220;-52
2023/11/10 04:40:47;;;;;;;4.23;3.63;;;;;;;3.80;100.00;96823.81;6218465;28;20232;-53
2023/11/10 04:43:49;;;;;;;4.73;3.87;;;;;;;3.99;100.00;96853.56;6217983;28;20283;-53
2023/11/10 04:46:51;;;;;;;6.20;3.70;;;;;;;4.02;100.00;96846.03;6217774;28;20210;-53
2023/11/10 04:49:53;;;;;;;4.60;3.50;;;;;;;4.03;100.00;96838.94;6218744;28;20208;-53
2023/11/10 04:52:56;;;;;;;4.40;3.30;;;;;;;4.05;100.00;96834.25;6219067;28;20536;-52
2023/11/10 04:56:00;;;;;;;4.07;3.20;;;;;;;4.07;100.00;96825.09;6222811;28;20197;-50
2023/11/10 04:59:02;;;;;;;4.87;3.40;;;;;;;4.09;100.00;96836.22;6222590;28;20188;-53
2023/11/10 05:02:04;;;;;;;3.97;2.73;;;;;;;4.07;100.00;96824.28;6220340;28;21004;-53
2023/11/10 05:05:06;;;;;;;3.70;3.00;;;;;;;4.11;100.00;96833.38;6221694;28;20719;-51
2023/11/10 05:08:11;;;;;;;2.77;2.47;;;;;;;4.06;100.00;96812.94;6223031;28;20264;-52
2023/11/10 05:11:13;;;;;;;3.40;3.10;;;;;;;4.04;100.00;96811.53;6222077;28;20198;-53
2023/11/10 05:14:16;;;;;;;4.47;2.93;;;;;;;4.18;100.00;96826.16;6221496;28;20211;-53
2023/11/10 05:17:18;;;;;;;5.37;3.33;;;;;;;4.20;100.00;96829.41;6222333;28;20219;-52
2023/11/10 05:20:21;;;;;;;3.63;2.80;;;;;;;4.23;100.00;96825.50;6224621;28;20204;-51
2023/11/10 05:23:23;;;;;;;4.23;3.00;;;;;;;4.24;100.00;96825.31;6222737;28;20213;-54
2023/11/10 05:26:25;;;;;;;3.80;2.83;;;;;;;4.24;100.00;96825.31;6220411;28;20200;-53
2023/11/10 05:29:28;;;;;;;2.73;2.47;;;;;;;4.14;100.00;96803.94;6222738;28;20204;-52
2023/11/10 05:32:31;;;;;;;4.07;2.77;;;;;;;4.27;100.00;96816.13;6220354;28;20198;-53
2023/11/10 05:35:33;;;;;;;3.83;2.87;;;;;;;4.31;100.00;96830.47;6222006;28;20239;-53
2023/11/10 05:38:35;;;;;;;2.83;2.57;;;;;;;4.29;100.00;96825.44;6220391;28;20746;-53
2023/11/10 05:41:40;;;;;;;3.40;2.57;;;;;;;4.32;100.00;96813.63;6221843;28;20670;-52
2023/11/10 05:44:43;;;;;;;3.93;2.77;;;;;;;4.35;100.00;96818.47;6221479;28;20692;-53
2023/11/10 05:47:44;;;;;;;4.33;2.70;;;;;;;4.38;100.00;96821.47;6220665;28;20616;-52
2023/11/10 05:50:49;;;;;;;4.07;2.87;;;;;;;4.40;100.00;96824.69;6220521;28;20669;-55
2023/11/10 05:53:51;;;;;;;3.43;2.77;;;;;;;4.42;100.00;96823.66;6221702;28;20201;-53
2023/11/10 05:56:53;;;;;;;3.00;2.57;;;;;;;4.45;100.00;96823.22;6222934;28;20200;-54
2023/11/10 05:59:57;;;;;;;3.83;3.07;;;;;;;4.44;100.00;96816.34;6219949;28;20202;-50
2023/11/10 06:03:00;;;;;;;3.57;2.90;;;;;;;4.47;100.00;96821.94;6217782;28;20201;-53
2023/11/10 06:06:02;;;;;;;4.93;3.53;;;;;;;4.49;100.00;96819.91;6219364;28;20655;-51
2023/11/10 06:09:06;;;;;;;3.30;2.80;;;;;;;4.51;100.00;96822.31;6221193;28;20215;-53
2023/11/10 06:12:08;;;;;;;3.07;2.70;;;;;;;4.53;100.00;96817.59;6217554;28;20210;-53
2023/11/10 06:15:12;;;;;;;4.23;2.53;;;;;;;4.45;100.00;96796.84;6218002;28;20209;-54
2023/11/10 06:18:15;;;;;;;3.93;2.20;;;;;;;4.58;100.00;96820.38;6220088;28;20241;-53
2023/11/10 06:21:21;;;;;;;2.77;2.50;;;;;;;4.61;100.00;96818.09;6220118;28;20222;-52
2023/11/10 06:24:24;;;;;;;2.70;2.33;;;;;;;4.63;100.00;96810.78;6233440;28;20202;-53
2023/11/10 06:27:27;;;;;;;3.93;2.30;;;;;;;4.67;100.00;96813.75;6218773;28;20218;-53
2023/11/10 06:30:29;;;;;;;4.13;2.30;;;;;;;4.71;100.00;96811.47;6211961;28;20234;-53
2023/11/10 06:33:33;;;;;;;2.40;2.10;;;;;;;4.75;100.00;96817.91;6197246;28;20207;-53
2023/11/10 06:36:35;;;;;;;3.33;2.43;;;;;;;4.77;100.00;96813.19;6193414;28;20258;-53
2023/11/10 06:39:38;;;;;;;3.83;2.90;;;;;;;4.79;100.00;96811.97;6178979;28;20720;-54
2023/11/10 06:42:41;;;;;;;2.20;1.90;;;;;;;4.81;100.00;96812.53;6163407;28;20207;-53
2023/11/10 06:45:44;;;;;;;2.53;2.33;;;;;;;4.85;100.00;96808.41;6198403;28;20314;-54
2023/11/10 06:48:47;;;;;;;2.33;2.13;;;;;;;4.87;100.00;96802.91;6195580;28;20207;-55
2023/11/10 06:51:49;;;;;;;4.33;2.70;;;;;;;4.90;100.00;96803.25;6197836;28;20201;-54
2023/11/10 06:54:51;;;;;;;3.50;2.30;;;;;;;4.94;100.00;96808.09;6179139;28;20567;-54
2023/11/10 06:57:56;;;;;;;3.30;2.63;;;;;;;4.97;100.00;96797.06;6197037;28;20648;-53
2023/11/10 07:00:58;;;;;;;2.57;2.33;;;;;;;5.00;100.00;96802.69;6194176;28;20202;-54
2023/11/10 07:04:00;;;;;;;4.03;2.47;;;;;;;5.04;100.00;96803.84;6198739;28;20665;-53
2023/11/10 07:07:03;;;;;;;3.97;2.70;;;;;;;5.09;100.00;96800.53;6196309;28;20217;-54
2023/11/10 07:10:07;;;;;;;4.60;3.20;;;;;;;5.12;100.00;96795.59;6197215;28;20715;-53
2023/11/10 07:13:14;;;;;;;4.17;3.20;;;;;;;5.18;100.00;96788.59;6195919;28;20192;-54
2023/11/10 07:16:20;;;;;;;4.03;2.77;;;;;;;5.22;100.00;96789.75;6195984;28;20196;-53
2023/11/10 07:19:25;;;;;;;4.67;2.70;;;;;;;5.24;100.00;96787.69;6180877;28;20219;-54
2023/11/10 07:22:27;;;;;;;3.60;2.67;;;;;;;5.28;100.00;96785.38;6200818;28;20202;-53
2023/11/10 07:25:30;;;;;;;3.30;2.70;;;;;;;5.33;100.00;96796.06;6197723;28;20574;-55
2023/11/10 07:28:32;;;;;;;3.87;2.60;;;;;;;5.37;100.00;96789.28;6195988;28;20642;-53
2023/11/10 07:31:35;;;;;;;4.83;3.43;;;;;;;5.09;100.00;96724.78;6195966;28;20247;-53
2023/11/10 07:34:37;;;;;;;4.17;2.97;;;;;;;5.48;100.00;96769.19;6194815;28;20539;-54
2023/11/10 07:37:44;;;;;;;4.83;2.70;;;;;;;5.54;100.00;96760.34;6192959;28;20660;-54
2023/11/10 07:40:46;;;;;;;3.90;3.13;;;;;;;5.60;100.00;96759.41;6195015;28;20208;-54
2023/11/10 07:43:48;;;;;;;3.00;2.70;;;;;;;5.52;100.00;96733.34;6194927;28;20201;-54
2023/11/10 07:46:50;;;;;;;3.47;3.00;;;;;;;5.74;100.00;96752.03;6176891;28;20208;-54
2023/11/10 07:49:53;;;;;;;4.77;2.83;;;;;;;5.62;100.00;96713.22;6194675;28;20684;-54
2023/11/10 07:52:55;;;;;;;4.77;3.40;;;;;;;5.86;100.00;96737.75;6193804;28;20203;-54
2023/11/10 07:55:57;;;;;;;8.30;5.00;;;;;;;5.91;100.00;96739.66;6176800;28;20205;-54
2023/11/10 07:59:01;;;;;;;7.63;5.87;;;;;;;5.95;100.00;96731.06;6193832;28;20200;-54
2023/11/10 08:02:03;;;;;;;7.03;5.43;;;;;;;6.03;100.00;96729.09;6178298;28;20205;-55
2023/11/10 08:05:05;;;;;;;6.50;5.90;;;;;;;5.92;100.00;96699.03;6194015;28;20299;-54
2023/11/10 08:08:07;;;;;;;8.47;5.80;;;;;;;6.16;100.00;96713.75;6192218;28;20626;-55
2023/11/10 08:11:11;;;;;;;7.33;5.50;;;;;;;6.16;100.00;96711.13;6193807;28;20717;-54
2023/11/10 08:14:14;;;;;;;7.40;5.03;;;;;;;6.23;100.00;96718.09;6194392;28;20201;-54
2023/11/10 08:17:16;;;;;;;6.67;4.90;;;;;;;6.24;100.00;96712.56;6192985;28;20200;-54
2023/11/10 08:20:18;;;;;;;7.57;5.63;;;;;;;6.25;100.00;96711.50;6174785;28;20211;-54
2023/11/10 08:23:21;;;;;;;8.33;5.53;;;;;;;6.29;100.00;96704.72;6193502;28;20209;-54
2023/11/10 08:26:23;;;;;;;7.43;6.33;;;;;;;6.35;100.00;96702.94;6191847;28;20868;-54
2023/11/10 08:29:25;;;;;;;8.13;6.33;;;;;;;6.44;100.00;96704.16;6194124;28;20208;-54
2023/11/10 08:32:28;;;;;;;8.63;6.60;;;;;;;6.52;100.00;96702.97;6210833;28;20570;-54
2023/11/10 08:35:31;;;;;;;7.17;5.80;;;;;;;6.60;100.00;96699.91;6217538;28;20332;-54
2023/11/10 08:38:33;;;;;;;8.10;5.70;;;;;;;6.50;100.00;96662.72;6217395;28;20704;-52
2023/11/10 08:41:35;;;;;;;7.20;5.60;;;;;;;6.80;100.00;96694.97;6216065;28;20184;-53
2023/11/10 08:44:37;;;;;;;7.47;5.77;;;;;;;6.87;100.00;96687.66;6217196;28;20207;-53
2023/11/10 08:47:41;;;;;;;5.13;4.57;;;;;;;7.00;100.00;96691.03;6217940;28;20205;-55
2023/11/10 08:50:43;;;;;;;5.90;4.80;;;;;;;7.08;100.00;96682.66;6215634;28;20218;-55
2023/11/10 08:53:45;;;;;;;6.30;5.33;;;;;;;7.17;100.00;96673.25;6217185;28;20247;-55
2023/11/10 08:56:47;;;;;;;5.33;4.60;;;;;;;7.26;100.00;96670.97;6217480;28;20310;-54
2023/11/10 08:59:49;;;;;;;4.07;3.60;;;;;;;7.35;100.00;96670.31;6215590;28;20192;-56
2023/11/10 09:02:52;;;;;;;4.87;4.00;;;;;;;7.40;100.00;96662.41;6217508;28;20203;-54
2023/11/10 09:05:54;;;;;;;4.23;3.80;;;;;;;7.42;100.00;96662.97;6217278;28;20661;-55
2023/11/10 09:08:56;;;;;;;3.60;3.23;;;;;;;7.46;100.00;96664.06;6215224;28;20209;-54
2023/11/10 09:11:58;;;;;;;4.27;2.60;;;;;;;7.50;100.00;96657.25;6217310;28;20315;-56
2023/11/10 09:15:00;;;;;;;10.50;7.73;;;;;;;7.53;100.00;96657.78;6217043;28;20204;-56
2023/11/10 09:18:03;;;;;;;6.13;5.53;;;;;;;7.46;100.00;96644.72;6216060;28;20200;-56
2023/11/10 09:21:07;;;;;;;7.47;6.60;;;;;;;7.55;100.00;96650.41;6217145;28;20220;-59
2023/11/10 09:24:09;;;;;;;8.40;6.80;;;;;;;7.59;100.00;96638.25;6218020;28;20279;-59
2023/11/10 09:27:11;;;;;;;7.30;6.60;;;;;;;7.67;100.00;96627.22;6214548;28;20679;-58
2023/11/10 09:30:14;;;;;;;6.80;6.13;;;;;;;7.66;100.00;96620.31;6215711;28;20243;-59
2023/11/10 09:33:17;;;;;;;6.47;4.93;;;;;;;7.81;100.00;96619.66;6214918;28;20278;-57
2023/11/10 09:36:19;;;;;;;7.83;6.47;;;;;;;7.86;100.00;96617.84;6216245;28;20201;-57
2023/11/10 09:39:22;;;;;;;6.57;5.83;;;;;;;7.96;100.00;96614.50;6217420;28;20188;-58
2023/11/10 09:42:26;;;;;;;6.30;5.67;;;;;;;8.01;100.00;96602.09;6219443;28;20223;-57
2023/11/10 09:45:30;;;;;;;7.23;6.50;;;;;;;7.96;100.00;96583.47;6220727;28;20201;-59
2023/11/10 09:48:33;;;;;;;6.73;5.20;;;;;;;8.15;100.00;96591.88;6218441;28;20223;-58
2023/11/10 09:51:39;;;;;;;5.13;4.60;;;;;;;8.15;100.00;96583.91;6221250;28;20200;-58
2023/11/10 09:54:45;;;;;;;5.20;4.70;;;;;;;8.24;100.00;96584.25;6220164;28;20220;-60
2023/11/10 09:57:51;;;;;;;8.10;6.50;;;;;;;8.27;100.00;96567.81;6219942;28;20674;-60
2023/11/10 10:00:55;;;;;;;8.30;6.03;;;;;;;8.32;100.00;96569.72;6220967;28;20185;-57
2023/11/10 10:03:58;;;;;;;7.57;6.53;;;;;;;8.32;100.00;96567.06;6221613;28;20277;-57
2023/11/10 10:07:01;;;;;;;6.60;5.90;;;;;;;8.32;100.00;96557.22;6220204;28;20196;-57
2023/11/10 10:10:04;;;;;;;8.97;6.20;;;;;;;8.33;100.00;96555.41;6221190;28;20204;-57
2023/11/10 10:13:07;;;;;;;5.83;5.23;;;;;;;8.35;100.00;96548.78;6222004;28;20205;-57
2023/11/10 10:16:11;;;;;;;6.00;5.40;;;;;;;8.40;100.00;96537.44;6219370;28;20669;-58
2023/11/10 10:19:21;;;;;;;3.60;3.30;;;;;;;8.46;100.00;96541.72;6220562;28;20190;-57
2023/11/10 10:22:24;;;;;;;3.00;2.70;;;;;;;8.58;100.00;96529.06;6220619;28;20189;-55
2023/11/10 10:25:26;;;;;;;2.93;2.50;;;;;;;8.62;100.00;96526.66;6220914;28;20665;-56
2023/11/10 10:28:28;;;;;;;2.43;2.23;;;;;;;8.76;100.00;96520.63;6218373;28;20689;-56
2023/11/10 10:31:31;;;;;;;2.43;2.23;;;;;;;8.86;100.00;96498.63;6222153;28;20236;-55
2023/11/10 10:34:33;;;;;;;2.23;2.00;;;;;;;8.96;100.00;96517.25;6219724;28;20184;-56
2023/11/10 10:37:39;;;;;;;2.07;1.87;;;;;;;9.08;100.00;96489.69;6219423;28;20196;-58
2023/11/10 10:40:43;;;;;;;3.07;2.20;;;;;;;9.18;100.00;96500.34;6220650;28;20397;-57
2023/11/10 10:43:50;;;;;;;1.90;1.70;;;;;;;9.20;100.00;96490.25;6219709;28;20209;-56
2023/11/10 10:47:12;;;;;;;2.40;2.00;;;;;;;9.32;100.00;96482.84;6221008;28;20224;-59
2023/11/10 10:50:14;;;;;;;1.80;1.50;;;;;;;9.26;100.00;96479.41;6219765;28;20323;-59
2023/11/10 10:53:19;;;;;;;3.03;2.00;;;;;;;9.40;100.00;96486.84;6219831;28;20564;-57
2023/11/10 10:56:23;;;;;;;1.90;1.70;;;;;;;9.07;100.00;96414.53;6219399;28;20198;-58
2023/11/10 10:59:44;;;;;;;2.40;1.63;;;;;;;9.61;100.00;96471.75;6219311;28;20198;-56
2023/11/10 11:02:53;;;;;;;2.20;1.80;;;;;;;9.60;100.00;96475.44;6220067;28;20190;-57
2023/11/10 11:05:59;;;;;;;2.30;1.90;;;;;;;9.65;100.00;96475.44;6222910;28;20693;-58
2023/11/10 11:09:10;;;;;;;2.33;2.07;;;;;;;9.79;100.00;96465.88;6234810;28;20217;-58
2023/11/10 11:12:54;;;;;;;1.80;1.50;;;;;;;10.00;100.00;96471.97;6218804;28;20199;-57
2023/11/10 11:16:07;;;;;;;1.70;1.50;;;;;;;10.08;100.00;96460.78;6218021;28;20212;-57
2023/11/10 11:19:23;;;;;;;1.50;1.37;;;;;;;10.12;100.00;96451.22;6218226;28;20203;-58
2023/11/10 11:22:28;;;;;;;2.03;1.23;;;;;;;10.21;100.00;96441.63;6220257;28;20235;-58
2023/11/10 11:25:37;;;;;;;2.13;1.50;;;;;;;10.26;100.00;96451.50;6219185;28;20190;-58
2023/11/10 11:28:40;;;;;;;3.30;1.70;;;;;;;10.26;100.00;96448.84;6216843;28;20228;-57
2023/11/10 11:31:46;;;;;;;3.30;1.50;;;;;;;10.18;100.00;96441.34;6217960;28;20766;-57
2023/11/10 11:34:52;;;;;;;2.67;1.20;;;;;;;10.16;100.00;96432.84;6218053;28;20198;-56
2023/11/10 11:38:01;;;;;;;1.27;1.17;;;;;;;10.08;100.00;96429.66;6217374;28;20196;-57
2023/11/10 11:41:03;;;;;;;1.67;1.23;;;;;;;10.12;100.00;96431.81;6216044;28;20753;-58
2023/11/10 11:44:07;;;;;;;1.57;1.20;;;;;;;10.01;100.00;96417.72;6218720;28;20235;-58
2023/11/10 11:47:11;;;;;;;1.37;1.27;;;;;;;10.17;100.00;96439.78;6219073;28;20196;-57
2023/11/10 11:50:13;;;;;;;1.77;1.40;;;;;;;10.14;100.00;96435.78;6218834;28;20209;-57
2023/11/10 11:53:17;;;;;;;1.30;1.20;;;;;;;10.10;100.00;96424.09;6217443;28;20211;-58
2023/11/10 11:56:20;;;;;;;2.83;1.20;;;;;;;10.21;100.00;96427.53;6217051;28;20204;-57
2023/11/10 11:59:23;;;;;;;1.30;1.20;;;;;;;10.20;100.00;96440.03;6218590;28;20184;-57
2023/11/10 12:02:25;;;;;;;1.43;1.33;;;;;;;10.19;100.00;96437.63;6216861;28;20191;-57
2023/11/10 12:05:30;;;;;;;3.03;1.20;;;;;;;10.07;100.00;96435.25;6217654;28;20285;-57
2023/11/10 12:08:32;;;;;;;3.60;1.43;;;;;;;10.07;100.00;96437.91;6215322;28;20211;-57
2023/11/10 12:11:36;;;;;;;1.40;0.97;;;;;;;10.02;100.00;96428.09;6218009;28;20242;-56
2023/11/10 12:14:38;;;;;;;2.90;1.40;;;;;;;9.92;100.00;96420.13;6218764;28;20200;-57
2023/11/10 12:17:42;;;;;;;2.90;1.20;;;;;;;9.97;100.00;96438.72;6218366;28;20187;-55
2023/11/10 12:20:44;;;;;;;1.40;1.07;;;;;;;9.96;100.00;96429.16;6217663;28;20189;-56
2023/11/10 12:24:00;;;;;;;1.07;1.00;;;;;;;9.98;100.00;96429.69;6217041;28;20207;-54
2023/11/10 12:27:02;;;;;;;1.47;1.20;;;;;;;10.00;100.00;96424.09;6214549;28;20220;-55
2023/11/10 12:30:06;;;;;;;1.00;0.83;;;;;;;9.99;100.00;96425.94;6218063;28;20239;-57
2023/11/10 12:33:12;;;;;;;1.97;1.00;;;;;;;9.99;100.00;96425.94;6214785;28;20837;-57
2023/11/10 12:36:15;;;;;;;1.10;0.97;;;;;;;10.00;100.00;96437.38;6217628;28;20302;-58
2023/11/10 12:39:17;;;;;;;1.43;1.30;;;;;;;9.86;100.00;96410.56;6217805;28;20195;-58
2023/11/10 12:42:20;;;;;;;1.83;1.23;;;;;;;9.85;100.00;96414.25;6217519;28;20192;-57
2023/11/10 12:45:24;;;;;;;2.27;1.00;;;;;;;9.83;100.00;96417.19;6217637;28;20200;-57
2023/11/10 12:48:27;;;;;;;1.47;1.23;;;;;;;9.59;100.00;96386.91;6217098;28;20242;-57
2023/11/10 12:51:32;;;;;;;1.10;1.00;;;;;;;9.77;100.00;96422.81;6217936;28;20661;-56
2023/11/10 12:54:41;;;;;;;1.53;1.20;;;;;;;9.78;100.00;96411.09;6217908;28;20199;-54
2023/11/10 12:57:45;;;;;;;2.07;1.10;;;;;;;9.78;100.00;96411.09;6217293;28;20192;-57
2023/11/10 13:00:47;;;;;;;1.37;1.00;;;;;;;9.79;100.00;96407.34;6217532;28;20229;-55
2023/11/10 13:03:50;;;;;;;2.53;0.97;;;;;;;9.65;100.00;96393.81;6217487;28;20691;-56
2023/11/10 13:06:54;;;;;;;1.70;0.90;;;;;;;9.80;100.00;96420.41;6219513;28;20851;-56
2023/11/10 13:09:57;;;;;;;1.97;1.07;;;;;;;9.80;100.00;96423.06;6216726;28;20219;-55
2023/11/10 13:13:00;;;;;;;1.87;0.97;;;;;;;9.82;100.00;96428.13;6215121;28;20703;-56
2023/11/10 13:16:02;;;;;;;1.73;1.50;;;;;;;9.67;100.00;96409.50;6220493;28;20721;-56
2023/11/10 13:19:08;;;;;;;1.50;1.00;;;;;;;9.76;100.00;96447.81;6220940;28;20214;-55
2023/11/10 13:22:17;;;;;;;1.10;1.00;;;;;;;9.59;100.00;96439.28;6218923;28;20750;-53
2023/11/10 13:25:19;;;;;;;1.17;1.07;;;;;;;9.64;100.00;96445.41;6221577;28;20708;-57
2023/11/10 13:28:21;;;;;;;1.67;1.40;;;;;;;9.62;100.00;96450.19;6218507;28;20202;-56
2023/11/10 13:31:31;;;;;;;1.50;1.40;;;;;;;9.52;100.00;96452.84;6223479;28;20811;-55
2023/11/10 13:34:34;;;;;;;2.23;1.50;;;;;;;9.46;100.00;96457.38;6221028;28;20622;-54
2023/11/10 13:37:37;;;;;;;1.67;1.40;;;;;;;9.24;100.00;96431.00;6221965;28;20277;-55
2023/11/10 13:40:40;;;;;;;1.80;1.40;;;;;;;9.39;100.00;96470.09;6224034;28;20664;-55
2023/11/10 13:43:42;;;;;;;2.13;1.40;;;;;;;9.36;100.00;96468.00;6221910;28;20211;-54
2023/11/10 13:46:44;;;;;;;1.63;1.53;;;;;;;9.16;100.00;96438.69;6220985;28;20199;-54
2023/11/10 13:49:47;;;;;;;1.30;1.20;;;;;;;9.35;100.00;96461.03;6221682;28;20262;-53
2023/11/10 13:52:50;;;;;;;1.73;1.57;;;;;;;9.32;100.00;96464.25;6220508;28;20743;-53
2023/11/10 13:55:52;;;;;;;1.03;1.00;;;;;;;9.13;100.00;96441.91;6208086;28;20780;-54
2023/11/10 13:58:55;;;;;;;1.50;1.20;;;;;;;9.28;100.00;96471.94;6221302;28;20202;-54
2023/11/10 14:01:57;;;;;;;1.63;1.53;;;;;;;9.25;100.00;96480.44;6219565;28;20220;-51
2023/11/10 14:05:00;;;;;;;1.33;1.23;;;;;;;9.21;100.00;96483.88;6221686;28;20281;-53
2023/11/10 14:08:02;;;;;;;2.40;1.60;;;;;;;9.07;100.00;96470.31;6218006;28;20195;-53
2023/11/10 14:11:12;;;;;;;2.20;1.33;;;;;;;9.02;100.00;96480.91;6220256;28;20250;-53
2023/11/10 14:14:15;;;;;;;2.50;1.70;;;;;;;8.84;100.00;96454.81;6219358;28;20199;-55
2023/11/10 14:17:17;;;;;;;2.27;1.63;;;;;;;8.88;100.00;96469.19;6220631;28;20193;-55